createdAt,value
2023-02-11T00:01:17.687Z,96966.47
2023-02-11T00:03:15.873Z,96970.72
2023-02-11T00:05:14.281Z,96978.44
2023-02-11T00:07:13.896Z,96971.59
2023-02-11T00:09:12.731Z,96966.47
2023-02-11T00:11:14.480Z,96978.44
2023-02-11T00:13:12.672Z,96978.41
2023-02-11T00:15:11.610Z,96970.72
2023-02-11T00:17:09.908Z,96977.56
2023-02-11T00:19:08.244Z,96981.84
2023-02-11T00:21:10.604Z,96980.19
2023-02-11T00:23:10.745Z,96978.47
2023-02-11T00:25:09.616Z,96981.03
2023-02-11T00:27:08.028Z,96978.44
2023-02-11T00:29:07.072Z,96968.16
2023-02-11T00:31:05.554Z,96963.88
2023-02-11T00:33:04.341Z,96972.44
2023-02-11T00:35:03.803Z,96974.13
2023-02-11T00:37:04.002Z,96983.53
2023-02-11T00:39:03.574Z,96971.56
2023-02-11T00:41:02.114Z,96972.44
2023-02-11T00:43:00.267Z,96971.56
2023-02-11T00:44:58.794Z,96972.38
2023-02-11T00:46:57.116Z,96961.22
2023-02-11T00:48:57.940Z,96958.69
2023-02-11T00:50:59.296Z,96962.97
2023-02-11T00:52:57.672Z,96950.09
2023-02-11T00:54:57.434Z,96962.94
2023-02-11T00:56:55.606Z,96961.22
2023-02-11T00:58:55.923Z,96962.06
2023-02-11T01:00:56.012Z,96958.66
2023-02-11T01:02:55.955Z,96962.06
2023-02-11T01:04:54.621Z,96962.91
2023-02-11T01:06:53.179Z,96963.75
2023-02-11T01:08:51.530Z,96952.66
2023-02-11T01:10:57.703Z,96956.06
2023-02-11T01:12:56.234Z,96962.06
2023-02-11T01:14:55.825Z,96953.50
2023-02-11T01:16:54.103Z,96954.34
2023-02-11T01:18:52.721Z,96950.06
2023-02-11T01:20:52.410Z,96962.91
2023-02-11T01:22:50.867Z,96958.59
2023-02-11T01:24:49.557Z,96953.47
2023-02-11T01:26:49.285Z,96958.59
2023-02-11T01:28:47.614Z,96952.66
2023-02-11T01:30:46.241Z,96954.31
2023-02-11T01:32:44.578Z,96951.75
2023-02-11T01:34:42.946Z,96944.94
2023-02-11T01:36:41.376Z,96951.75
2023-02-11T01:38:41.002Z,96948.34
2023-02-11T01:40:39.412Z,96935.50
2023-02-11T01:42:39.119Z,96940.63
2023-02-11T01:44:40.123Z,96935.53
2023-02-11T01:46:40.009Z,96946.66
2023-02-11T01:48:42.793Z,96944.91
2023-02-11T01:50:42.749Z,96939.75
2023-02-11T01:52:43.271Z,96940.59
2023-02-11T01:55:02.698Z,96938.84
2023-02-11T01:57:20.835Z,96942.28
2023-02-11T01:59:25.561Z,96942.31
2023-02-11T02:01:28.051Z,96939.69
2023-02-11T02:03:26.476Z,96943.97
2023-02-11T02:05:32.136Z,96940.66
2023-02-11T02:07:37.375Z,96941.50
2023-02-11T02:09:42.168Z,96942.34
2023-02-11T02:11:40.559Z,96942.28
2023-02-11T02:13:39.791Z,96943.13
2023-02-11T02:15:41.230Z,96942.25
2023-02-11T02:17:50.717Z,96939.66
2023-02-11T02:20:48.999Z,96938.75
2023-02-11T02:23:11.593Z,96948.16
2023-02-11T02:25:28.166Z,96941.28
2023-02-11T02:27:37.476Z,96939.53
2023-02-11T02:30:02.147Z,96931.81
2023-02-11T02:32:29.708Z,96938.59
2023-02-11T02:34:37.599Z,96942.03
2023-02-11T02:36:42.376Z,96936.97
2023-02-11T02:38:48.657Z,96935.22
2023-02-11T02:40:51.338Z,96930.09
2023-02-11T02:42:51.180Z,96935.28
2023-02-11T02:44:51.358Z,96928.47
2023-02-11T02:46:49.594Z,96939.63
2023-02-11T02:48:51.179Z,96938.78
2023-02-11T02:50:50.702Z,96932.78
2023-02-11T02:52:59.311Z,96937.88
2023-02-11T02:55:13.512Z,96930.13
2023-02-11T02:57:24.787Z,96938.63
2023-02-11T02:59:37.809Z,96936.03
2023-02-11T03:01:47.449Z,96942.84
2023-02-11T03:03:55.916Z,96939.47
2023-02-11T03:05:59.629Z,96935.97
2023-02-11T03:08:02.356Z,96937.66
2023-02-11T03:10:09.040Z,96946.19
2023-02-11T03:12:09.029Z,96941.81
2023-02-11T03:14:11.991Z,96942.72
2023-02-11T03:16:14.927Z,96940.19
2023-02-11T03:18:17.057Z,96935.91
2023-02-11T03:20:21.099Z,96944.38
2023-02-11T03:22:23.449Z,96940.94
2023-02-11T03:24:29.357Z,96940.91
2023-02-11T03:26:34.204Z,96945.19
2023-02-11T03:28:36.990Z,96934.16
2023-02-11T03:30:42.106Z,96945.28
2023-02-11T03:32:43.042Z,96945.31
2023-02-11T03:34:46.841Z,96941.88
2023-02-11T03:36:51.596Z,96941.03
2023-02-11T03:38:51.739Z,96946.94
2023-02-11T03:40:51.635Z,96935.78
2023-02-11T03:42:53.928Z,96936.56
2023-02-11T03:45:02.126Z,96933.97
2023-02-11T03:47:04.659Z,96930.66
2023-02-11T03:49:06.577Z,96929.91
2023-02-11T03:51:08.291Z,96931.50
2023-02-11T03:53:09.115Z,96935.75
2023-02-11T03:55:12.594Z,96935.75
2023-02-11T03:57:10.856Z,96933.19
2023-02-11T03:59:09.675Z,96933.16
2023-02-11T04:01:10.003Z,96942.53
2023-02-11T04:03:09.574Z,96945.09
2023-02-11T04:05:09.684Z,96943.41
2023-02-11T04:07:08.107Z,96942.50
2023-02-11T04:09:08.121Z,96939.97
2023-02-11T04:11:06.391Z,96933.97
2023-02-11T04:13:05.124Z,96937.38
2023-02-11T04:15:03.324Z,96942.53
2023-02-11T04:17:01.913Z,96934.91
2023-02-11T04:19:01.770Z,96931.44
2023-02-11T04:21:00.011Z,96938.25
2023-02-11T04:22:58.343Z,96933.06
2023-02-11T04:24:58.289Z,96929.66
2023-02-11T04:26:56.421Z,96933.94
2023-02-11T04:28:54.735Z,96927.88
2023-02-11T04:30:53.035Z,96933.84
2023-02-11T04:32:51.434Z,96934.66
2023-02-11T04:34:49.863Z,96936.34
2023-02-11T04:36:48.233Z,96926.13
2023-02-11T04:38:46.480Z,96927.88
2023-02-11T04:40:46.148Z,96929.56
2023-02-11T04:42:44.323Z,96928.75
2023-02-11T04:44:42.419Z,96921.88
2023-02-11T04:46:40.975Z,96927.78
2023-02-11T04:48:39.148Z,96924.34
2023-02-11T04:50:37.571Z,96920.97
2023-02-11T04:52:35.691Z,96921.84
2023-02-11T04:54:34.245Z,96925.25
2023-02-11T04:56:33.927Z,96931.22
2023-02-11T04:58:32.297Z,96925.19
2023-02-11T05:00:30.679Z,96926.00
2023-02-11T05:02:29.233Z,96927.69
2023-02-11T05:04:27.680Z,96922.59
2023-02-11T05:06:26.471Z,96924.25
2023-02-11T05:08:24.723Z,96924.25
2023-02-11T05:10:22.979Z,96918.25
2023-02-11T05:12:22.660Z,96921.63
2023-02-11T05:14:20.878Z,96915.63
2023-02-11T05:16:19.638Z,96905.41
2023-02-11T05:18:18.084Z,96914.69
2023-02-11T05:20:16.326Z,96924.09
2023-02-11T05:22:14.724Z,96919.84
2023-02-11T05:24:12.960Z,96915.09
2023-02-11T05:26:12.385Z,96919.25
2023-02-11T05:28:11.982Z,96913.16
2023-02-11T05:30:12.091Z,96917.34
2023-02-11T05:32:10.425Z,96912.97
2023-02-11T05:34:08.622Z,96906.97
2023-02-11T05:36:09.974Z,96918.06
2023-02-11T05:38:08.447Z,96919.84
2023-02-11T05:40:07.647Z,96918.19
2023-02-11T05:42:06.330Z,96917.19
2023-02-11T05:44:05.953Z,96918.75
2023-02-11T05:46:04.656Z,96925.47
2023-02-11T05:48:02.904Z,96927.09
2023-02-11T05:50:01.176Z,96927.91
2023-02-11T05:51:59.464Z,96928.75
2023-02-11T05:53:57.871Z,96919.38
2023-02-11T05:55:56.161Z,96929.66
2023-02-11T05:57:54.531Z,96933.28
2023-02-11T05:59:54.134Z,96940.28
2023-02-11T06:01:52.486Z,96931.88
2023-02-11T06:03:51.468Z,96929.38
2023-02-11T06:05:50.298Z,96933.22
2023-02-11T06:07:48.905Z,96931.94
2023-02-11T06:09:47.225Z,96927.91
2023-02-11T06:11:45.559Z,96921.06
2023-02-11T06:13:44.037Z,96925.91
2023-02-11T06:15:43.846Z,96927.22
2023-02-11T06:17:42.242Z,96920.53
2023-02-11T06:19:40.618Z,96913.19
2023-02-11T06:21:44.113Z,96915.19
2023-02-11T06:23:43.613Z,96914.50
2023-02-11T06:25:41.741Z,96917.34
2023-02-11T06:27:40.547Z,96915.06
2023-02-11T06:29:38.868Z,96915.19
2023-02-11T06:31:40.478Z,96915.84
2023-02-11T06:33:38.816Z,96918.94
2023-02-11T06:35:39.600Z,96924.31
2023-02-11T06:37:37.917Z,96929.00
2023-02-11T06:39:36.301Z,96930.41
2023-02-11T06:41:35.057Z,96926.16
2023-02-11T06:43:35.752Z,96926.94
2023-02-11T06:45:34.003Z,96924.41
2023-02-11T06:47:34.211Z,96925.13
2023-02-11T06:49:32.687Z,96928.94
2023-02-11T06:51:30.917Z,96927.34
2023-02-11T06:53:29.216Z,96935.09
2023-02-11T06:55:27.560Z,96930.25
2023-02-11T06:57:25.808Z,96937.38
2023-02-11T06:59:24.124Z,96925.81
2023-02-11T07:01:23.241Z,96929.56
2023-02-11T07:03:22.951Z,96923.72
2023-02-11T07:05:21.384Z,96923.44
2023-02-11T07:07:19.705Z,96921.28
2023-02-11T07:09:18.278Z,96932.84
2023-02-11T07:11:18.371Z,96923.81
2023-02-11T07:13:16.724Z,96919.88
2023-02-11T07:15:15.128Z,96919.25
2023-02-11T07:17:13.484Z,96915.31
2023-02-11T07:19:13.104Z,96917.38
2023-02-11T07:21:13.457Z,96923.16
2023-02-11T07:23:11.831Z,96916.38
2023-02-11T07:25:10.045Z,96922.53
2023-02-11T07:27:08.343Z,96915.91
2023-02-11T07:29:06.613Z,96910.31
2023-02-11T07:31:08.024Z,96911.88
2023-02-11T07:33:06.418Z,96906.25
2023-02-11T07:35:07.045Z,96913.38
2023-02-11T07:37:05.174Z,96911.91
2023-02-11T07:39:03.427Z,96912.75
2023-02-11T07:41:02.154Z,96906.59
2023-02-11T07:43:01.908Z,96899.78
2023-02-11T07:44:59.996Z,96900.81
2023-02-11T07:46:58.434Z,96898.66
2023-02-11T07:48:57.130Z,96889.84
2023-02-11T07:50:57.088Z,96895.22
2023-02-11T07:52:55.313Z,96889.16
2023-02-11T07:54:53.614Z,96892.47
2023-02-11T07:56:51.911Z,96894.81
2023-02-11T07:58:50.777Z,96898.28
2023-02-11T08:00:49.098Z,96891.19
2023-02-11T08:02:50.127Z,96882.78
2023-02-11T08:04:48.410Z,96869.72
2023-02-11T08:06:47.852Z,96870.88
2023-02-11T08:08:46.634Z,96873.34
2023-02-11T08:10:44.896Z,96868.56
2023-02-11T08:12:43.231Z,96861.53
2023-02-11T08:14:41.641Z,96866.97
2023-02-11T08:16:42.101Z,96863.13
2023-02-11T08:18:40.637Z,96873.22
2023-02-11T08:20:39.212Z,96867.47
2023-02-11T08:22:42.044Z,96861.78
2023-02-11T08:24:40.523Z,96872.66
2023-02-11T08:26:39.485Z,96869.97
2023-02-11T08:28:38.352Z,96858.81
2023-02-11T08:30:36.973Z,96859.84
2023-02-11T08:32:36.346Z,96858.09
2023-02-11T08:34:34.821Z,96863.91
2023-02-11T08:36:34.943Z,96861.91
2023-02-11T08:38:34.881Z,96857.44
2023-02-11T08:40:33.331Z,96856.63
2023-02-11T08:42:31.605Z,96860.38
2023-02-11T08:44:30.258Z,96860.16
2023-02-11T08:46:28.986Z,96858.38
2023-02-11T08:48:28.656Z,96861.53
2023-02-11T08:50:28.561Z,96862.31
2023-02-11T08:52:26.993Z,96859.16
2023-02-11T08:54:27.129Z,96866.25
2023-02-11T08:56:25.780Z,96858.91
2023-02-11T08:58:24.166Z,96857.53
2023-02-11T09:00:23.163Z,96857.53
2023-02-11T09:02:21.572Z,96856.84
2023-02-11T09:04:20.242Z,96856.06
2023-02-11T09:06:18.759Z,96859.47
2023-02-11T09:08:18.359Z,96845.47
2023-02-11T09:10:18.154Z,96847.72
2023-02-11T09:12:16.666Z,96846.03
2023-02-11T09:14:20.347Z,96849.22
2023-02-11T09:16:20.855Z,96845.41
2023-02-11T09:18:19.055Z,96837.50
2023-02-11T09:20:17.654Z,96841.75
2023-02-11T09:22:15.806Z,96840.38
2023-02-11T09:24:14.192Z,96838.38
2023-02-11T09:26:16.679Z,96829.44
2023-02-11T09:28:14.870Z,96832.88
2023-02-11T09:30:13.966Z,96833.06
2023-02-11T09:32:12.266Z,96831.97
2023-02-11T09:34:12.631Z,96831.72
2023-02-11T09:36:11.091Z,96835.94
2023-02-11T09:38:09.325Z,96826.16
2023-02-11T09:40:08.303Z,96828.69
2023-02-11T09:42:47.760Z,96820.84
2023-02-11T09:44:47.543Z,96820.84
2023-02-11T09:46:51.271Z,96805.97
2023-02-11T09:48:51.856Z,96800.47
2023-02-11T09:50:52.830Z,96804.06
2023-02-11T09:52:57.970Z,96793.19
2023-02-11T09:54:58.710Z,96795.16
2023-02-11T09:56:57.664Z,96786.25
2023-02-11T09:58:57.343Z,96781.50
2023-02-11T10:01:05.296Z,96774.72
2023-02-11T10:03:21.066Z,96775.94
2023-02-11T10:05:32.641Z,96765.53
2023-02-11T10:07:39.480Z,96759.97
2023-02-11T10:09:54.475Z,96764.25
2023-02-11T10:11:57.538Z,96757.78
2023-02-11T10:14:02.889Z,96760.72
2023-02-11T10:16:09.343Z,96751.59
2023-02-11T10:18:27.482Z,96744.38
2023-02-11T10:20:32.888Z,96740.59
2023-02-11T10:22:36.314Z,96717.88
2023-02-11T10:24:36.426Z,96713.44
2023-02-11T10:26:39.177Z,96709.72
2023-02-11T10:28:39.542Z,96712.56
2023-02-11T10:30:44.667Z,96703.25
2023-02-11T10:32:48.934Z,96696.31
2023-02-11T10:34:47.113Z,96702.06
2023-02-11T10:36:46.471Z,96687.56
2023-02-11T10:38:45.434Z,96678.09
2023-02-11T10:40:43.603Z,96683.44
2023-02-11T10:42:45.623Z,96676.69
2023-02-11T10:44:53.780Z,96667.72
2023-02-11T10:46:54.731Z,96663.09
2023-02-11T10:48:54.676Z,96669.16
2023-02-11T10:51:08.264Z,96657.81
2023-02-11T10:53:21.198Z,96654.97
2023-02-11T10:55:22.061Z,96660.63
2023-02-11T10:57:21.102Z,96640.91
2023-02-11T10:59:27.997Z,96645.88
2023-02-11T11:01:41.107Z,96639.97
2023-02-11T11:03:48.840Z,96643.41
2023-02-11T11:05:51.791Z,96637.94
2023-02-11T11:07:55.478Z,96630.91
2023-02-11T11:09:55.855Z,96635.31
2023-02-11T11:11:54.868Z,96635.31
2023-02-11T11:13:59.274Z,96631.50
2023-02-11T11:16:17.699Z,96628.31
2023-02-11T11:18:24.346Z,96637.47
2023-02-11T11:20:28.767Z,96627.50
2023-02-11T11:22:26.768Z,96626.97
2023-02-11T11:24:30.509Z,96630.69
2023-02-11T11:26:40.769Z,96626.00
2023-02-11T11:28:43.552Z,96626.31
2023-02-11T11:30:44.366Z,96624.19
2023-02-11T11:32:43.884Z,96630.88
2023-02-11T11:34:46.284Z,96619.88
2023-02-11T11:36:46.270Z,96623.78
2023-02-11T11:38:47.826Z,96625.97
2023-02-11T11:40:46.083Z,96624.78
2023-02-11T11:42:44.406Z,96616.84
2023-02-11T11:44:42.700Z,96620.94
2023-02-11T11:46:44.968Z,96616.44
2023-02-11T11:48:50.274Z,96609.81
2023-02-11T11:50:53.528Z,96601.69
2023-02-11T11:53:02.908Z,96609.53
2023-02-11T11:55:06.209Z,96603.47
2023-02-11T11:57:12.579Z,96593.56
2023-02-11T11:59:16.784Z,96589.66
2023-02-11T12:01:35.784Z,96585.91
2023-02-11T12:06:42.927Z,96583.50
2023-02-11T12:08:53.763Z,96575.13
2023-02-11T12:11:10.601Z,96574.41
2023-02-11T12:13:24.701Z,96572.72
2023-02-11T12:15:33.785Z,96559.31
2023-02-11T12:17:43.813Z,96565.47
2023-02-11T12:19:56.640Z,96567.03
2023-02-11T12:22:07.528Z,96563.16
2023-02-11T12:24:24.169Z,96557.84
2023-02-11T12:26:24.875Z,96546.31
2023-02-11T12:28:32.717Z,96539.31
2023-02-11T12:30:51.226Z,96544.03
2023-02-11T12:32:56.814Z,96540.50
2023-02-11T12:35:24.397Z,96535.69
2023-02-11T12:37:41.378Z,96540.13
2023-02-11T12:39:51.036Z,96536.91
2023-02-11T12:42:21.762Z,96537.53
2023-02-11T12:44:32.392Z,96531.53
2023-02-11T12:46:46.827Z,96529.66
2023-02-11T12:49:03.526Z,96531.41
2023-02-11T12:51:11.863Z,96524.97
2023-02-11T12:53:29.294Z,96519.03
2023-02-11T12:55:32.550Z,96514.91
2023-02-11T12:57:42.117Z,96520.09
2023-02-11T12:59:50.104Z,96509.47
2023-02-11T13:01:50.962Z,96508.84
2023-02-11T13:03:55.174Z,96513.25
2023-02-11T13:05:55.226Z,96509.81
2023-02-11T13:07:58.628Z,96509.31
2023-02-11T13:10:05.561Z,96516.31
2023-02-11T13:12:29.279Z,96502.91
2023-02-11T13:14:32.843Z,96509.47
2023-02-11T13:16:40.732Z,96510.22
2023-02-11T13:18:52.159Z,96506.25
2023-02-11T13:20:59.630Z,96490.38
2023-02-11T13:23:08.258Z,96489.44
2023-02-11T13:25:16.773Z,96490.25
2023-02-11T13:27:27.940Z,96488.38
2023-02-11T13:29:34.320Z,96478.22
2023-02-11T13:31:33.054Z,96496.84
2023-02-11T13:33:43.201Z,96487.13
2023-02-11T13:35:44.797Z,96490.38
2023-02-11T13:37:49.049Z,96487.50
2023-02-11T13:39:58.113Z,96479.22
2023-02-11T13:42:04.388Z,96482.44
2023-02-11T13:44:23.752Z,96484.50
2023-02-11T13:46:26.682Z,96480.31
2023-02-11T13:48:34.396Z,96465.59
2023-02-11T13:50:39.471Z,96474.03
2023-02-11T13:52:40.209Z,96464.47
2023-02-11T13:54:48.717Z,96465.59
2023-02-11T13:56:49.390Z,96472.44
2023-02-11T13:58:51.830Z,96459.66
2023-02-11T14:00:55.266Z,96456.44
2023-02-11T14:03:43.435Z,96458.59
2023-02-11T14:06:30.373Z,96463.75
2023-02-11T14:08:48.765Z,96461.19
2023-02-11T14:11:03.449Z,96457.34
2023-02-11T14:13:09.312Z,96455.88
2023-02-11T14:15:31.146Z,96456.56
2023-02-11T14:17:33.510Z,96467.50
2023-02-11T14:19:34.677Z,96463.78
2023-02-11T14:21:38.829Z,96461.38
2023-02-11T14:23:37.560Z,96451.97
2023-02-11T14:25:37.720Z,96448.88
2023-02-11T14:27:46.996Z,96454.31
2023-02-11T14:29:55.120Z,96451.25
2023-02-11T14:32:04.005Z,96454.88
2023-02-11T14:34:24.299Z,96446.13
2023-02-11T14:36:47.580Z,96451.81
2023-02-11T14:38:57.570Z,96456.53
2023-02-11T14:41:10.871Z,96450.81
2023-02-11T14:43:15.017Z,96463.16
2023-02-11T14:45:20.778Z,96453.50
2023-02-11T14:47:28.448Z,96450.16
2023-02-11T14:49:29.820Z,96461.03
2023-02-11T14:51:31.429Z,96455.16
2023-02-11T14:53:35.560Z,96453.78
2023-02-11T14:55:37.603Z,96448.78
2023-02-11T14:57:37.897Z,96445.59
2023-02-11T14:59:40.732Z,96445.81
2023-02-11T15:01:47.379Z,96450.13
2023-02-11T15:03:51.938Z,96449.31
2023-02-11T15:05:57.051Z,96453.16
2023-02-11T15:07:58.096Z,96435.13
2023-02-11T15:09:57.309Z,96440.53
2023-02-11T15:11:57.512Z,96438.22
2023-02-11T15:14:00.289Z,96439.16
2023-02-11T15:16:03.794Z,96434.19
2023-02-11T15:18:04.557Z,96435.97
2023-02-11T15:20:04.901Z,96433.63
2023-02-11T15:22:09.185Z,96427.84
2023-02-11T15:24:23.866Z,96435.06
2023-02-11T15:26:23.528Z,96412.03
2023-02-11T15:28:29.056Z,96414.81
2023-02-11T15:30:32.387Z,96417.63
2023-02-11T15:32:33.484Z,96415.13
2023-02-11T15:34:32.491Z,96416.22
2023-02-11T15:36:36.390Z,96417.44
2023-02-11T15:38:36.191Z,96418.50
2023-02-11T15:40:35.754Z,96421.22
2023-02-11T15:42:47.214Z,96423.28
2023-02-11T15:44:56.612Z,96422.66
2023-02-11T15:46:55.396Z,96421.88
2023-02-11T15:48:55.123Z,96423.72
2023-02-11T15:50:56.100Z,96423.00
2023-02-11T15:52:56.332Z,96418.78
2023-02-11T15:54:57.416Z,96419.00
2023-02-11T15:57:01.075Z,96424.94
2023-02-11T15:59:02.018Z,96424.78
2023-02-11T16:01:00.301Z,96426.81
2023-02-11T16:02:58.922Z,96429.81
2023-02-11T16:04:59.566Z,96433.63
2023-02-11T16:06:59.833Z,96426.09
2023-02-11T16:09:05.158Z,96426.34
2023-02-11T16:11:09.169Z,96435.13
2023-02-11T16:13:20.460Z,96434.28
2023-02-11T16:15:42.744Z,96428.38
2023-02-11T16:17:41.534Z,96437.91
2023-02-11T16:19:45.547Z,96433.66
2023-02-11T16:21:46.289Z,96434.69
2023-02-11T16:23:50.408Z,96440.69
2023-02-11T16:25:49.018Z,96435.59
2023-02-11T16:27:52.989Z,96435.66
2023-02-11T16:29:52.460Z,96438.38
2023-02-11T16:31:53.823Z,96439.34
2023-02-11T16:33:52.280Z,96432.63
2023-02-11T16:35:50.823Z,96438.97
2023-02-11T16:37:49.307Z,96439.59
2023-02-11T16:39:47.884Z,96436.25
2023-02-11T16:41:46.403Z,96445.63
2023-02-11T16:43:46.164Z,96437.03
2023-02-11T16:45:44.549Z,96440.31
2023-02-11T16:47:44.521Z,96438.47
2023-02-11T16:49:43.971Z,96433.16
2023-02-11T16:51:42.754Z,96435.91
2023-02-11T16:53:41.857Z,96435.84
2023-02-11T16:55:40.470Z,96443.88
2023-02-11T16:57:38.706Z,96430.75
2023-02-11T16:59:38.447Z,96431.38
2023-02-11T17:01:38.766Z,96441.31
2023-02-11T17:03:41.126Z,96449.53
2023-02-11T17:05:54.284Z,96437.09
2023-02-11T17:07:53.949Z,96434.13
2023-02-11T17:09:52.908Z,96432.63
2023-02-11T17:11:51.706Z,96429.13
2023-02-11T17:13:50.119Z,96422.69
2023-02-11T17:15:50.688Z,96423.78
2023-02-11T17:17:49.238Z,96429.59
2023-02-11T17:19:48.575Z,96427.31
2023-02-11T17:21:49.070Z,96424.16
2023-02-11T17:23:47.444Z,96427.69
2023-02-11T17:25:45.625Z,96423.63
2023-02-11T17:27:44.428Z,96426.19
2023-02-11T17:29:42.875Z,96426.13
2023-02-11T17:31:43.352Z,96434.75
2023-02-11T17:33:41.952Z,96435.75
2023-02-11T17:35:43.631Z,96432.16
2023-02-11T17:37:42.452Z,96433.00
2023-02-11T17:39:41.581Z,96427.69
2023-02-11T17:41:40.911Z,96428.53
2023-02-11T17:43:39.344Z,96441.72
2023-02-11T17:45:43.664Z,96447.00
2023-02-11T17:47:43.696Z,96454.69
2023-02-11T17:49:42.620Z,96448.78
2023-02-11T17:51:41.384Z,96448.06
2023-02-11T17:53:39.832Z,96451.44
2023-02-11T17:55:39.068Z,96455.72
2023-02-11T17:57:37.599Z,96454.81
2023-02-11T17:59:36.533Z,96459.88
2023-02-11T18:01:35.852Z,96466.59
2023-02-11T18:03:35.557Z,96460.47
2023-02-11T18:05:37.610Z,96456.44
2023-02-11T18:07:35.939Z,96466.78
2023-02-11T18:09:38.282Z,96471.19
2023-02-11T18:11:38.695Z,96464.44
2023-02-11T18:13:36.873Z,96472.25
2023-02-11T18:15:35.592Z,96460.28
2023-02-11T18:17:33.776Z,96455.22
2023-02-11T18:19:36.009Z,96472.41
2023-02-11T18:21:34.672Z,96471.69
2023-02-11T18:23:32.871Z,96466.63
2023-02-11T18:25:31.256Z,96454.28
2023-02-11T18:27:29.501Z,96448.91
2023-02-11T18:29:27.836Z,96458.44
2023-02-11T18:31:26.877Z,96458.53
2023-02-11T18:33:25.189Z,96458.66
2023-02-11T18:35:25.415Z,96450.69
2023-02-11T18:37:23.681Z,96447.47
2023-02-11T18:39:24.342Z,96443.31
2023-02-11T18:41:22.798Z,96437.41
2023-02-11T18:43:21.830Z,96431.59
2023-02-11T18:45:19.959Z,96435.22
2023-02-11T18:47:21.158Z,96429.06
2023-02-11T18:49:19.563Z,96426.47
2023-02-11T18:51:19.957Z,96426.38
2023-02-11T18:53:18.228Z,96421.22
2023-02-11T18:55:16.725Z,96426.31
2023-02-11T18:57:14.997Z,96428.28
2023-02-11T18:59:13.622Z,96420.53
2023-02-11T19:01:13.968Z,96428.34
2023-02-11T19:03:12.565Z,96420.59
2023-02-11T19:05:11.588Z,96418.72
2023-02-11T19:07:11.394Z,96428.22
2023-02-11T19:09:11.758Z,96423.78
2023-02-11T19:11:10.524Z,96427.28
2023-02-11T19:13:08.913Z,96420.53
2023-02-11T19:15:08.858Z,96418.81
2023-02-11T19:17:08.654Z,96430.03
2023-02-11T19:19:07.549Z,96426.75
2023-02-11T19:21:10.280Z,96422.69
2023-02-11T19:23:10.524Z,96421.06
2023-02-11T19:25:09.166Z,96417.72
2023-02-11T19:27:07.543Z,96413.59
2023-02-11T19:29:06.046Z,96421.38
2023-02-11T19:31:08.596Z,96416.25
2023-02-11T19:33:09.951Z,96413.66
2023-02-11T19:35:09.159Z,96410.97
2023-02-11T19:37:07.477Z,96409.22
2023-02-11T19:39:07.176Z,96395.47
2023-02-11T19:41:06.297Z,96399.91
2023-02-11T19:43:04.672Z,96404.22
2023-02-11T19:45:02.984Z,96399.22
2023-02-11T19:47:01.808Z,96410.44
2023-02-11T19:49:01.189Z,96401.75
2023-02-11T19:51:00.588Z,96390.47
2023-02-11T19:52:58.804Z,96389.38
2023-02-11T19:54:58.368Z,96380.91
2023-02-11T19:56:57.749Z,96383.91
2023-02-11T19:58:56.466Z,96384.63
2023-02-11T20:00:54.810Z,96382.69
2023-02-11T20:02:53.161Z,96380.84
2023-02-11T20:04:51.362Z,96368.69
2023-02-11T20:06:49.597Z,96381.84
2023-02-11T20:08:48.001Z,96376.78
2023-02-11T20:10:47.547Z,96389.00
2023-02-11T20:12:45.868Z,96390.03
2023-02-11T20:14:44.051Z,96386.72
2023-02-11T20:16:49.253Z,96374.72
2023-02-11T20:18:49.066Z,96378.38
2023-02-11T20:20:47.361Z,96382.88
2023-02-11T20:22:45.763Z,96377.78
2023-02-11T20:24:43.924Z,96378.63
2023-02-11T20:26:43.746Z,96371.91
2023-02-11T20:28:42.768Z,96366.13
2023-02-11T20:30:41.141Z,96361.88
2023-02-11T20:32:39.454Z,96368.53
2023-02-11T20:34:37.940Z,96359.88
2023-02-11T20:36:38.210Z,96355.25
2023-02-11T20:38:37.608Z,96353.28
2023-02-11T20:40:35.815Z,96363.59
2023-02-11T20:42:35.431Z,96349.19
2023-02-11T20:44:33.624Z,96346.00
2023-02-11T20:46:34.078Z,96351.25
2023-02-11T20:48:33.124Z,96353.88
2023-02-11T20:50:31.299Z,96346.88
2023-02-11T20:52:29.558Z,96340.97
2023-02-11T20:54:27.756Z,96346.97
2023-02-11T20:56:28.861Z,96345.53
2023-02-11T20:58:28.719Z,96341.44
2023-02-11T21:00:26.920Z,96337.28
2023-02-11T21:02:25.154Z,96328.75
2023-02-11T21:04:25.688Z,96328.84
2023-02-11T21:06:25.800Z,96328.84
2023-02-11T21:08:24.077Z,96320.47
2023-02-11T21:10:22.301Z,96322.44
2023-02-11T21:12:20.817Z,96312.28
2023-02-11T21:14:22.377Z,96305.03
2023-02-11T21:16:22.303Z,96305.66
2023-02-11T21:18:20.567Z,96305.75
2023-02-11T21:20:19.405Z,96292.94
2023-02-11T21:22:17.783Z,96292.19
2023-02-11T21:24:16.107Z,96285.44
2023-02-11T21:26:15.281Z,96279.41
2023-02-11T21:28:13.709Z,96278.69
2023-02-11T21:30:14.859Z,96288.84
2023-02-11T21:32:13.285Z,96285.19
2023-02-11T21:34:11.680Z,96283.66
2023-02-11T21:36:11.468Z,96280.38
2023-02-11T21:38:09.916Z,96285.41
2023-02-11T21:40:09.690Z,96285.25
2023-02-11T21:42:08.026Z,96284.41
2023-02-11T21:44:06.388Z,96277.38
2023-02-11T21:46:10.403Z,96282.28
2023-02-11T21:48:08.796Z,96287.50
2023-02-11T21:50:07.969Z,96280.50
2023-02-11T21:52:06.206Z,96284.69
2023-02-11T21:54:05.079Z,96282.88
2023-02-11T21:56:05.232Z,96288.19
2023-02-11T21:58:05.874Z,96277.97
2023-02-11T22:00:04.343Z,96275.41
2023-02-11T22:02:05.082Z,96277.19
2023-02-11T22:04:03.371Z,96280.69
2023-02-11T22:06:01.539Z,96280.00
2023-02-11T22:07:59.842Z,96275.69
2023-02-11T22:09:59.312Z,96285.19
2023-02-11T22:11:57.512Z,96284.41
2023-02-11T22:13:56.587Z,96294.66
2023-02-11T22:16:01.477Z,96286.09
2023-02-11T22:18:01.881Z,96290.34
2023-02-11T22:20:00.670Z,96298.91
2023-02-11T22:22:03.034Z,96292.94
2023-02-11T22:24:01.358Z,96292.94
2023-02-11T22:26:00.234Z,96297.25
2023-02-11T22:27:58.373Z,96295.50
2023-02-11T22:29:57.051Z,96295.50
2023-02-11T22:31:55.605Z,96293.59
2023-02-11T22:33:55.697Z,96286.50
2023-02-11T22:35:59.758Z,96296.06
2023-02-11T22:37:58.768Z,96291.91
2023-02-11T22:39:57.164Z,96298.78
2023-02-11T22:41:56.615Z,96291.06
2023-02-11T22:43:57.956Z,96293.75
2023-02-11T22:45:57.080Z,96290.22
2023-02-11T22:47:55.702Z,96289.13
2023-02-11T22:49:55.252Z,96285.50
2023-02-11T22:51:58.683Z,96282.19
2023-02-11T22:53:59.687Z,96287.47
2023-02-11T22:55:58.289Z,96286.63
2023-02-11T22:57:56.845Z,96282.19
2023-02-11T22:59:55.090Z,96293.03
2023-02-11T23:01:54.182Z,96292.91
2023-02-11T23:03:52.808Z,96302.34
2023-02-11T23:05:52.917Z,96302.28
2023-02-11T23:07:51.450Z,96307.47
2023-02-11T23:09:49.740Z,96302.34
2023-02-11T23:11:49.505Z,96293.69
2023-02-11T23:13:50.652Z,96289.44
2023-02-11T23:15:49.313Z,96289.50
2023-02-11T23:17:47.540Z,96287.97
2023-02-11T23:19:45.800Z,96277.78
2023-02-11T23:21:45.465Z,96280.44
2023-02-11T23:23:43.929Z,96286.69
2023-02-11T23:25:45.769Z,96273.84
2023-02-11T23:27:44.152Z,96276.00
2023-02-11T23:29:42.357Z,96259.03
2023-02-11T23:31:43.949Z,96265.69
2023-02-11T23:33:42.357Z,96256.56
2023-02-11T23:35:41.164Z,96256.69
2023-02-11T23:37:40.805Z,96269.81
2023-02-11T23:39:39.286Z,96258.97
2023-02-11T23:41:37.531Z,96267.59
2023-02-11T23:43:35.914Z,96267.53
2023-02-11T23:45:34.082Z,96264.00
2023-02-11T23:47:32.362Z,96264.06
2023-02-11T23:49:30.642Z,96256.13
2023-02-11T23:51:29.071Z,96265.44
2023-02-11T23:53:28.720Z,96256.47